createdAt,value
2022-10-17T00:00:41.659Z,12.77
2022-10-17T00:03:08.499Z,12.85
2022-10-17T00:05:39.517Z,12.63
2022-10-17T00:08:06.091Z,12.35
2022-10-17T00:10:32.745Z,12.52
2022-10-17T00:12:59.417Z,13.40
2022-10-17T00:15:25.992Z,12.75
2022-10-17T00:17:52.546Z,12.10
2022-10-17T00:20:19.556Z,12.32
2022-10-17T00:22:46.603Z,12.45
2022-10-17T00:25:13.328Z,12.20
2022-10-17T00:27:41.349Z,10.70
2022-10-17T00:30:12.002Z,11.65
2022-10-17T00:32:39.404Z,12.13
2022-10-17T00:35:07.283Z,10.88
2022-10-17T00:37:34.299Z,12.00
2022-10-17T00:40:01.148Z,11.43
2022-10-17T00:42:28.457Z,11.43
2022-10-17T00:45:07.900Z,11.52
2022-10-17T00:47:36.066Z,11.60
2022-10-17T00:50:05.047Z,12.10
2022-10-17T00:52:32.490Z,11.15
2022-10-17T00:55:03.765Z,9.57
2022-10-17T00:57:32.585Z,11.10
2022-10-17T01:00:03.016Z,10.55
2022-10-17T01:02:30.108Z,10.68
2022-10-17T01:04:59.546Z,10.18
2022-10-17T01:07:30.818Z,11.00
2022-10-17T01:10:00.087Z,10.52
2022-10-17T01:12:45.576Z,10.60
2022-10-17T01:15:23.790Z,10.60
2022-10-17T01:18:15.053Z,10.90
2022-10-17T01:20:59.351Z,10.30
2022-10-17T01:24:03.252Z,11.30
2022-10-17T01:26:41.663Z,10.85
2022-10-17T01:29:26.623Z,11.60
2022-10-17T01:32:02.073Z,12.43
2022-10-17T01:34:36.279Z,12.00
2022-10-17T01:37:11.160Z,12.82
2022-10-17T01:40:10.660Z,12.52
2022-10-17T01:43:11.556Z,12.68
2022-10-17T01:45:49.115Z,11.40
2022-10-17T01:48:21.376Z,13.13
2022-10-17T01:51:01.610Z,12.57
2022-10-17T01:53:35.818Z,12.57
2022-10-17T01:56:06.384Z,12.40
2022-10-17T01:58:43.536Z,13.43
2022-10-17T02:01:12.622Z,14.02
2022-10-17T02:03:42.957Z,12.55
2022-10-17T02:06:09.862Z,13.30
2022-10-17T02:08:45.673Z,13.25
2022-10-17T02:11:17.759Z,13.75
2022-10-17T02:13:55.778Z,13.95
2022-10-17T02:16:41.084Z,12.82
2022-10-17T02:19:08.413Z,13.68
2022-10-17T02:21:49.940Z,13.35
2022-10-17T02:24:33.179Z,13.90
2022-10-17T02:27:05.947Z,14.15
2022-10-17T02:29:38.632Z,14.85
2022-10-17T02:32:09.735Z,13.80
2022-10-17T02:34:44.094Z,14.00
2022-10-17T02:37:15.616Z,14.32
2022-10-17T02:39:44.279Z,14.32
2022-10-17T02:42:13.651Z,13.98
2022-10-17T02:44:43.757Z,15.30
2022-10-17T02:47:16.763Z,16.23
2022-10-17T02:49:50.383Z,16.50
2022-10-17T02:52:48.111Z,16.58
2022-10-17T02:55:23.762Z,15.25
2022-10-17T02:57:57.879Z,16.88
2022-10-17T03:00:25.474Z,16.73
2022-10-17T03:02:53.954Z,16.17
2022-10-17T03:05:23.832Z,16.08
2022-10-17T03:07:51.004Z,15.73
2022-10-17T03:10:18.448Z,14.77
2022-10-17T03:12:45.304Z,15.30
2022-10-17T03:15:12.527Z,15.52
2022-10-17T03:17:40.533Z,15.45
2022-10-17T03:20:07.921Z,13.30
2022-10-17T03:22:34.732Z,14.55
2022-10-17T03:25:01.270Z,14.82
2022-10-17T03:27:28.242Z,15.07
2022-10-17T03:29:55.147Z,14.30
2022-10-17T03:32:21.757Z,15.38
2022-10-17T03:34:48.575Z,14.88
2022-10-17T03:37:15.265Z,15.15
2022-10-17T03:39:41.971Z,16.02
2022-10-17T03:42:08.783Z,14.45
2022-10-17T03:44:35.354Z,14.40
2022-10-17T03:47:01.876Z,15.07
2022-10-17T03:49:28.751Z,15.00
2022-10-17T03:51:55.308Z,14.43
2022-10-17T03:54:21.954Z,14.25
2022-10-17T03:56:48.657Z,14.77
2022-10-17T03:59:16.341Z,14.00
2022-10-17T04:01:43.325Z,14.60
2022-10-17T04:04:10.223Z,14.88
2022-10-17T04:06:37.637Z,14.55
2022-10-17T04:09:05.876Z,14.27
2022-10-17T04:11:32.811Z,14.45
2022-10-17T04:13:59.727Z,13.88
2022-10-17T04:16:27.273Z,14.35
2022-10-17T04:18:56.044Z,13.55
2022-10-17T04:21:24.750Z,13.70
2022-10-17T04:23:59.252Z,12.77
2022-10-17T04:26:27.221Z,14.40
2022-10-17T04:28:53.877Z,13.05
2022-10-17T04:31:20.627Z,14.07
2022-10-17T04:33:50.954Z,12.25
2022-10-17T04:36:20.008Z,13.45
2022-10-17T04:38:47.209Z,13.90
2022-10-17T04:41:17.260Z,12.45
2022-10-17T04:43:46.932Z,13.48
2022-10-17T04:46:16.982Z,13.18
2022-10-17T04:48:43.579Z,12.55
2022-10-17T04:51:15.577Z,13.57
2022-10-17T04:53:43.475Z,13.27
2022-10-17T04:56:10.209Z,12.77
2022-10-17T04:58:37.586Z,13.05
2022-10-17T05:01:09.389Z,13.00
2022-10-17T05:03:36.293Z,13.02
2022-10-17T05:06:29.048Z,13.30
2022-10-17T05:08:55.630Z,13.05
2022-10-17T05:11:27.680Z,12.70
2022-10-17T05:13:56.836Z,12.60
2022-10-17T05:16:24.386Z,13.02
2022-10-17T05:18:53.234Z,12.32
2022-10-17T05:21:21.834Z,12.77
2022-10-17T05:23:48.433Z,12.68
2022-10-17T05:26:15.576Z,13.02
2022-10-17T05:28:42.374Z,13.60
2022-10-17T05:31:10.512Z,12.65
2022-10-17T05:33:38.422Z,13.35
2022-10-17T05:36:06.052Z,12.90
2022-10-17T05:38:33.013Z,12.60
2022-10-17T05:41:00.691Z,12.02
2022-10-17T05:43:28.333Z,12.10
2022-10-17T05:45:55.306Z,12.25
2022-10-17T05:48:22.715Z,12.00
2022-10-17T05:50:49.560Z,11.90
2022-10-17T05:53:16.958Z,12.05
2022-10-17T05:55:43.523Z,11.82
2022-10-17T05:58:17.659Z,12.23
2022-10-17T06:00:48.922Z,12.77
2022-10-17T06:03:15.550Z,12.88
2022-10-17T06:05:42.203Z,12.77
2022-10-17T06:08:08.986Z,12.15
2022-10-17T06:10:35.662Z,13.02
2022-10-17T06:13:02.225Z,12.95
2022-10-17T06:15:28.956Z,13.27
2022-10-17T06:17:55.488Z,14.07
2022-10-17T06:20:22.058Z,13.80
2022-10-17T06:22:48.627Z,13.60
2022-10-17T06:25:15.224Z,13.40
2022-10-17T06:27:41.874Z,13.48
2022-10-17T06:30:09.015Z,12.48
2022-10-17T06:32:35.552Z,12.80
2022-10-17T06:35:02.067Z,12.85
2022-10-17T06:37:35.568Z,12.25
2022-10-17T06:40:04.275Z,12.48
2022-10-17T06:42:30.855Z,12.50
2022-10-17T06:44:57.429Z,12.48
2022-10-17T06:47:23.942Z,12.00
2022-10-17T06:49:50.561Z,13.07
2022-10-17T06:52:17.307Z,12.35
2022-10-17T06:54:44.639Z,12.43
2022-10-17T06:57:11.206Z,11.98
2022-10-17T06:59:38.303Z,11.60
2022-10-17T07:02:05.728Z,12.23
2022-10-17T07:04:32.390Z,13.35
2022-10-17T07:09:31.721Z,12.15
2022-10-17T07:11:58.864Z,11.82
2022-10-17T07:14:31.983Z,11.93
2022-10-17T07:16:59.726Z,11.65
2022-10-17T07:19:27.123Z,12.32
2022-10-17T07:21:54.243Z,11.13
2022-10-17T07:24:20.817Z,11.52
2022-10-17T07:26:47.467Z,11.27
2022-10-17T07:29:14.060Z,11.45
2022-10-17T07:31:40.911Z,10.55
2022-10-17T07:34:07.488Z,10.98
2022-10-17T07:36:34.307Z,10.18
2022-10-17T07:39:00.925Z,10.10
2022-10-17T07:41:27.919Z,9.70
2022-10-17T07:43:54.561Z,10.10
2022-10-17T07:46:21.191Z,10.20
2022-10-17T07:48:47.786Z,10.45
2022-10-17T07:51:14.376Z,10.38
2022-10-17T07:53:46.357Z,9.95
2022-10-17T07:56:15.509Z,9.68
2022-10-17T07:58:42.151Z,10.20
2022-10-17T08:01:15.469Z,9.52
2022-10-17T08:03:44.497Z,9.52
2022-10-17T08:06:11.518Z,9.00
2022-10-17T08:08:38.144Z,9.10
2022-10-17T08:11:07.484Z,8.95
2022-10-17T08:13:34.636Z,9.43
2022-10-17T08:16:02.975Z,8.63
2022-10-17T08:18:30.133Z,8.90
2022-10-17T08:21:00.421Z,8.55
2022-10-17T08:23:28.317Z,7.80
2022-10-17T08:25:55.013Z,9.18
2022-10-17T08:28:21.656Z,7.80
2022-10-17T08:30:48.311Z,7.38
2022-10-17T08:33:14.875Z,7.78
2022-10-17T08:35:41.639Z,7.10
2022-10-17T08:38:10.005Z,7.45
2022-10-17T08:40:42.730Z,6.80
2022-10-17T08:43:26.306Z,6.93
2022-10-17T08:46:00.399Z,6.82
2022-10-17T08:48:29.199Z,6.82
2022-10-17T08:51:14.458Z,6.80
2022-10-17T08:53:50.102Z,6.20
2022-10-17T08:56:25.104Z,5.97
2022-10-17T08:59:06.471Z,5.57
2022-10-17T09:01:33.676Z,6.03
2022-10-17T09:04:22.698Z,6.55
2022-10-17T09:07:01.880Z,6.05
2022-10-17T09:09:42.081Z,6.32
2022-10-17T09:12:28.888Z,6.10
2022-10-17T09:15:21.252Z,6.25
2022-10-17T09:18:00.940Z,5.50
2022-10-17T09:20:32.555Z,5.60
2022-10-17T09:23:21.196Z,5.00
2022-10-17T09:25:52.535Z,5.68
2022-10-17T09:28:31.550Z,5.40
2022-10-17T09:31:03.002Z,4.95
2022-10-17T09:33:55.054Z,4.90
2022-10-17T09:36:33.900Z,4.90
2022-10-17T09:39:03.920Z,5.18
2022-10-17T09:41:46.125Z,5.03
2022-10-17T09:44:19.948Z,4.60
2022-10-17T09:47:10.700Z,4.38
2022-10-17T09:49:42.507Z,4.45
2022-10-17T09:52:15.130Z,4.47
2022-10-17T09:54:43.752Z,4.43
2022-10-17T09:57:12.455Z,3.92
2022-10-17T09:59:43.123Z,4.72
2022-10-17T10:02:12.438Z,3.78
2022-10-17T10:05:04.191Z,4.10
2022-10-17T10:07:38.194Z,4.05
2022-10-17T10:10:08.882Z,4.28
2022-10-17T10:12:39.146Z,4.03
2022-10-17T10:15:30.993Z,3.95
2022-10-17T10:17:57.672Z,3.88
2022-10-17T10:20:32.299Z,4.18
2022-10-17T10:23:12.683Z,4.40
2022-10-17T10:25:50.491Z,3.92
2022-10-17T10:28:17.800Z,4.45
2022-10-17T10:30:49.275Z,4.32
2022-10-17T10:33:16.101Z,3.72
2022-10-17T10:35:42.851Z,3.63
2022-10-17T10:38:17.477Z,3.67
2022-10-17T10:40:54.284Z,4.07
2022-10-17T10:43:26.715Z,3.40
2022-10-17T10:45:53.666Z,3.40
2022-10-17T10:48:23.125Z,2.83
2022-10-17T10:51:04.451Z,3.20
2022-10-17T10:53:51.245Z,3.40
2022-10-17T10:56:29.917Z,3.22
2022-10-17T10:59:08.587Z,2.67
2022-10-17T11:01:46.371Z,2.90
2022-10-17T11:04:24.921Z,3.45
2022-10-17T11:06:55.354Z,3.20
2022-10-17T11:09:34.948Z,2.97
2022-10-17T11:12:06.935Z,3.40
2022-10-17T11:14:49.654Z,3.28
2022-10-17T11:17:34.935Z,2.70
2022-10-17T11:20:07.738Z,2.95
2022-10-17T11:22:54.179Z,2.50
2022-10-17T11:25:32.542Z,2.80
2022-10-17T11:28:03.819Z,2.90
2022-10-17T11:30:42.555Z,2.70
2022-10-17T11:33:18.290Z,2.60
2022-10-17T11:35:47.494Z,2.85
2022-10-17T11:38:20.204Z,2.60
2022-10-17T11:40:50.936Z,3.05
2022-10-17T11:43:23.407Z,3.22
2022-10-17T11:45:55.565Z,2.80
2022-10-17T11:48:31.822Z,3.25
2022-10-17T11:54:22.254Z,2.58
2022-10-17T11:57:15.568Z,2.75
2022-10-17T12:00:00.716Z,2.97
2022-10-17T12:02:47.429Z,2.65
2022-10-17T12:05:58.588Z,2.72
2022-10-17T12:08:38.491Z,2.80
2022-10-17T12:11:35.942Z,3.25
2022-10-17T12:14:05.913Z,2.85
2022-10-17T12:16:35.626Z,2.90
2022-10-17T12:19:02.278Z,2.60
2022-10-17T12:21:49.398Z,2.85
2022-10-17T12:24:52.790Z,3.00
2022-10-17T12:27:23.575Z,2.90
2022-10-17T12:29:50.898Z,2.60
2022-10-17T12:32:17.629Z,2.85
2022-10-17T12:34:56.032Z,2.95
2022-10-17T12:37:45.277Z,3.03
2022-10-17T12:40:36.667Z,2.70
2022-10-17T12:43:15.609Z,2.83
2022-10-17T12:45:46.039Z,2.80
2022-10-17T12:48:12.768Z,2.50
2022-10-17T12:51:34.282Z,3.28
2022-10-17T12:53:58.147Z,2.55
2022-10-17T12:56:43.025Z,2.72
2022-10-17T12:59:16.919Z,2.60
2022-10-17T13:01:50.580Z,2.80
2022-10-17T13:04:18.411Z,3.03
2022-10-17T13:06:53.170Z,2.53
2022-10-17T13:09:33.321Z,2.58
2022-10-17T13:12:03.602Z,3.00
2022-10-17T13:14:33.270Z,2.65
2022-10-17T13:17:05.277Z,2.90
2022-10-17T13:19:44.364Z,3.03
2022-10-17T13:22:22.884Z,2.65
2022-10-17T13:24:50.881Z,2.70
2022-10-17T13:27:28.233Z,2.80
2022-10-17T13:29:56.668Z,3.15
2022-10-17T13:32:25.471Z,2.28
2022-10-17T13:35:06.135Z,3.28
2022-10-17T13:37:34.727Z,3.17
2022-10-17T13:40:16.196Z,3.03
2022-10-17T13:42:50.006Z,2.80
2022-10-17T13:45:22.910Z,2.80
2022-10-17T13:47:49.870Z,2.63
2022-10-17T13:50:45.234Z,2.80
2022-10-17T13:53:17.054Z,2.72
2022-10-17T13:56:23.008Z,2.83
2022-10-17T13:58:50.188Z,3.05
2022-10-17T14:01:18.754Z,2.85
2022-10-17T14:03:49.130Z,2.47
2022-10-17T14:06:24.400Z,2.90
2022-10-17T14:09:05.227Z,3.10
2022-10-17T14:11:36.137Z,2.70
2022-10-17T14:14:04.868Z,2.90
2022-10-17T14:16:38.771Z,2.80
2022-10-17T14:19:07.033Z,2.70
2022-10-17T14:21:43.949Z,2.50
2022-10-17T14:24:23.682Z,3.22
2022-10-17T14:26:55.589Z,2.88
2022-10-17T14:29:25.223Z,2.58
2022-10-17T14:32:03.419Z,2.80
2022-10-17T14:34:37.353Z,2.50
2022-10-17T14:37:36.059Z,2.58
2022-10-17T14:40:06.117Z,3.20
2022-10-17T14:42:39.127Z,2.85
2022-10-17T14:45:09.311Z,2.55
2022-10-17T14:47:43.668Z,3.05
2022-10-17T14:50:10.936Z,2.88
2022-10-17T14:52:39.009Z,2.72
2022-10-17T14:55:26.733Z,2.45
2022-10-17T14:57:53.397Z,2.88
2022-10-17T15:00:21.736Z,2.60
2022-10-17T15:02:49.866Z,2.63
2022-10-17T15:05:17.362Z,2.50
2022-10-17T15:07:44.154Z,3.08
2022-10-17T15:10:34.580Z,3.08
2022-10-17T15:13:26.714Z,3.20
2022-10-17T15:15:52.023Z,3.08
2022-10-17T15:18:19.215Z,3.13
2022-10-17T15:20:45.888Z,3.08
2022-10-17T15:23:12.660Z,3.38
2022-10-17T15:25:39.605Z,3.08
2022-10-17T15:28:06.157Z,2.83
2022-10-17T15:30:36.441Z,2.95
2022-10-17T15:33:03.001Z,3.22
2022-10-17T15:35:29.703Z,3.05
2022-10-17T15:37:56.305Z,2.85
2022-10-17T15:40:25.536Z,2.65
2022-10-17T15:42:52.249Z,3.00
2022-10-17T15:45:21.802Z,2.35
2022-10-17T15:47:58.499Z,3.00
2022-10-17T15:50:25.199Z,3.35
2022-10-17T15:52:52.426Z,2.90
2022-10-17T15:55:20.130Z,2.72
2022-10-17T15:57:48.251Z,2.97
2022-10-17T16:00:16.803Z,2.72
2022-10-17T16:02:44.019Z,3.00
2022-10-17T16:05:23.708Z,3.25
2022-10-17T16:07:50.470Z,2.95
2022-10-17T16:10:18.151Z,2.97
2022-10-17T16:12:45.845Z,3.00
2022-10-17T16:15:15.219Z,2.72
2022-10-17T16:17:41.955Z,2.90
2022-10-17T16:20:09.513Z,3.15
2022-10-17T16:22:40.640Z,2.55
2022-10-17T16:25:19.464Z,3.08
2022-10-17T16:27:47.996Z,2.50
2022-10-17T16:30:15.112Z,2.90
2022-10-17T16:32:42.454Z,3.05
2022-10-17T16:35:11.534Z,3.35
2022-10-17T16:37:38.134Z,3.03
2022-10-17T16:40:05.222Z,3.33
2022-10-17T16:42:32.029Z,2.97
2022-10-17T16:44:58.932Z,3.53
2022-10-17T16:47:25.648Z,3.30
2022-10-17T16:49:52.218Z,2.95
2022-10-17T16:52:18.917Z,3.15
2022-10-17T16:54:45.624Z,3.20
2022-10-17T16:57:12.206Z,3.55
2022-10-17T16:59:39.251Z,3.05
2022-10-17T17:02:06.862Z,3.30
2022-10-17T17:04:33.450Z,3.17
2022-10-17T17:07:00.187Z,3.28
2022-10-17T17:09:26.737Z,3.40
2022-10-17T17:11:53.444Z,3.97
2022-10-17T17:14:20.067Z,3.72
2022-10-17T17:16:46.791Z,4.63
2022-10-17T17:19:16.887Z,3.85
2022-10-17T17:21:47.820Z,3.20
2022-10-17T17:24:14.528Z,3.83
2022-10-17T17:26:41.615Z,3.85
2022-10-17T17:29:08.378Z,3.50
2022-10-17T17:31:35.846Z,3.58
2022-10-17T17:34:03.001Z,3.28
2022-10-17T17:36:34.363Z,4.13
2022-10-17T17:39:05.404Z,3.05
2022-10-17T17:41:32.418Z,3.40
2022-10-17T17:44:00.057Z,3.90
2022-10-17T17:46:26.855Z,3.45
2022-10-17T17:48:55.304Z,3.58
2022-10-17T17:51:28.349Z,4.60
2022-10-17T17:53:57.086Z,4.28
2022-10-17T17:56:26.833Z,5.13
2022-10-17T17:58:59.753Z,4.20
2022-10-17T18:01:29.207Z,3.60
2022-10-17T18:03:59.004Z,3.50
2022-10-17T18:06:26.572Z,3.50
2022-10-17T18:08:56.736Z,3.83
2022-10-17T18:11:23.896Z,3.92
2022-10-17T18:14:01.667Z,4.97
2022-10-17T18:16:29.993Z,4.93
2022-10-17T18:18:57.297Z,5.00
2022-10-17T18:21:24.530Z,5.30
2022-10-17T18:23:51.926Z,4.88
2022-10-17T18:26:19.199Z,5.03
2022-10-17T18:28:46.891Z,4.30
2022-10-17T18:31:19.196Z,4.90
2022-10-17T18:33:46.541Z,5.10
2022-10-17T18:36:15.832Z,5.10
2022-10-17T18:38:44.539Z,5.03
2022-10-17T18:41:20.689Z,5.45
2022-10-17T18:43:49.864Z,4.82
2022-10-17T18:46:35.756Z,5.50
2022-10-17T18:49:03.720Z,5.05
2022-10-17T18:51:38.360Z,5.40
2022-10-17T18:54:20.973Z,5.43
2022-10-17T18:56:59.311Z,5.50
2022-10-17T18:59:29.757Z,5.63
2022-10-17T19:01:58.466Z,5.55
2022-10-17T19:04:26.022Z,5.43
2022-10-17T19:06:52.652Z,5.53
2022-10-17T19:09:19.737Z,6.50
2022-10-17T19:11:46.362Z,5.50
2022-10-17T19:14:14.064Z,6.00
2022-10-17T19:16:46.609Z,6.05
2022-10-17T19:19:24.716Z,6.15
2022-10-17T19:21:52.703Z,5.75
2022-10-17T19:24:23.043Z,4.97
2022-10-17T19:26:51.075Z,4.85
2022-10-17T19:29:18.308Z,5.68
2022-10-17T19:31:47.437Z,5.53
2022-10-17T19:34:20.901Z,6.60
2022-10-17T19:36:48.688Z,5.82
2022-10-17T19:39:21.060Z,6.30
2022-10-17T19:41:48.364Z,6.03
2022-10-17T19:44:16.629Z,6.82
2022-10-17T19:46:49.544Z,6.53
2022-10-17T19:49:16.528Z,6.95
2022-10-17T19:51:46.740Z,7.22
2022-10-17T19:54:22.184Z,7.63
2022-10-17T19:56:49.144Z,6.70
2022-10-17T19:59:17.020Z,6.45
2022-10-17T20:01:46.566Z,6.13
2022-10-17T20:04:15.101Z,6.65
2022-10-17T20:06:48.092Z,7.15
2022-10-17T20:09:22.901Z,7.93
2022-10-17T20:11:59.335Z,7.30
2022-10-17T20:14:37.368Z,8.02
2022-10-17T20:17:09.945Z,7.63
2022-10-17T20:19:43.554Z,7.93
2022-10-17T20:22:18.732Z,7.82
2022-10-17T20:24:46.498Z,8.10
2022-10-17T20:27:13.377Z,8.43
2022-10-17T20:29:39.968Z,6.70
2022-10-17T20:32:06.838Z,6.90
2022-10-17T20:34:35.589Z,7.93
2022-10-17T20:37:02.441Z,7.47
2022-10-17T20:39:29.333Z,6.80
2022-10-17T20:41:55.970Z,6.38
2022-10-17T20:44:22.564Z,5.78
2022-10-17T20:47:01.112Z,6.22
2022-10-17T20:49:28.936Z,5.50
2022-10-17T20:51:55.955Z,5.47
2022-10-17T20:54:22.567Z,8.80
2022-10-17T20:56:49.394Z,6.97
2022-10-17T20:59:17.576Z,5.93
2022-10-17T21:01:45.308Z,8.13
2022-10-17T21:04:45.447Z,8.65
2022-10-17T21:06:59.451Z,8.00
2022-10-17T21:09:26.172Z,8.13
2022-10-17T21:11:55.594Z,9.27
2022-10-17T21:14:24.411Z,9.55
2022-10-17T21:16:52.297Z,9.23
2022-10-17T21:19:18.992Z,6.45
2022-10-17T21:21:46.763Z,9.35
2022-10-17T21:24:17.868Z,9.82
2022-10-17T21:26:45.576Z,9.02
2022-10-17T21:29:13.220Z,8.52
2022-10-17T21:31:42.390Z,10.43
2022-10-17T21:34:18.461Z,8.85
2022-10-17T21:36:45.167Z,7.03
2022-10-17T21:39:13.447Z,5.00
2022-10-17T21:41:40.559Z,5.45
2022-10-17T21:44:19.470Z,5.03
2022-10-17T21:46:47.100Z,5.93
2022-10-17T21:49:15.690Z,4.35
2022-10-17T21:51:43.043Z,4.70
2022-10-17T21:54:09.648Z,4.78
2022-10-17T21:56:36.560Z,5.32
2022-10-17T21:59:04.040Z,7.28
2022-10-17T22:01:39.177Z,6.78
2022-10-17T22:04:08.215Z,6.03
2022-10-17T22:06:41.247Z,5.18
2022-10-17T22:09:22.996Z,4.78
2022-10-17T22:11:54.111Z,7.13
2022-10-17T22:14:22.441Z,5.28
2022-10-17T22:16:49.951Z,5.38
2022-10-17T22:19:21.140Z,5.28
2022-10-17T22:21:47.785Z,5.00
2022-10-17T22:24:16.111Z,4.90
2022-10-17T22:26:43.049Z,5.55
2022-10-17T22:29:09.728Z,7.43
2022-10-17T22:31:37.526Z,7.05
2022-10-17T22:34:05.751Z,6.82
2022-10-17T22:36:32.760Z,7.20
2022-10-17T22:38:59.415Z,6.78
2022-10-17T22:41:26.034Z,7.75
2022-10-17T22:43:52.724Z,7.50
2022-10-17T22:46:19.377Z,7.70
2022-10-17T22:48:46.049Z,7.88
2022-10-17T22:51:12.737Z,8.18
2022-10-17T22:53:39.495Z,8.25
2022-10-17T22:56:11.687Z,7.30
2022-10-17T22:58:38.791Z,7.90
2022-10-17T23:01:07.687Z,6.82
2022-10-17T23:03:35.096Z,7.55
2022-10-17T23:06:02.814Z,7.10
2022-10-17T23:08:29.586Z,6.80
2022-10-17T23:10:56.476Z,5.90
2022-10-17T23:13:23.077Z,5.95
2022-10-17T23:15:51.892Z,6.78
2022-10-17T23:18:19.076Z,6.35
2022-10-17T23:20:45.800Z,7.00
2022-10-17T23:23:12.512Z,5.13
2022-10-17T23:25:39.260Z,4.75
2022-10-17T23:28:08.112Z,6.50
2022-10-17T23:30:35.215Z,8.27
2022-10-17T23:33:01.948Z,8.65
2022-10-17T23:35:28.612Z,6.72
2022-10-17T23:37:55.470Z,6.82
2022-10-17T23:40:22.085Z,8.70
2022-10-17T23:42:48.990Z,11.52
2022-10-17T23:45:15.695Z,20.13
2022-10-17T23:47:42.446Z,16.67
2022-10-17T23:50:09.193Z,13.85
2022-10-17T23:52:35.776Z,9.15
2022-10-17T23:55:02.476Z,15.32
2022-10-17T23:57:29.411Z,18.00
2022-10-17T23:59:56.382Z,16.95
